Latest Weather Observations for Lismore Airport

IDN60801

Issued at 9:32 pm EST Sunday 30 August 2015 (issued every 30 minutes, with the page automatically refreshed every 10 minutes)

About weather observations | Map of weather stations | Latest weather observations for NSW | Other Formats
Station Details ID: 058214 Name: LISMORE AIRPORT AWS Lat: -28.83 Lon: 153.26 Height: 9.21 m
Data from the previous 72 hours. | See also: Recent months at Lismore Airport
Date/Time
EST
Temp
°C
App
Temp
°C
Dew
Point
Rel
Hum
%
Delta-T
°C
Wind Press
QNH
hPa
Press
MSL
hPa
Rain
since 9 am
mm
Dir
 
Spd
km/h
Gust
km/h
Spd
kts
Gust
kts
30/09:30pm 11.8 9.9 10.5 92 0.7 NNW 11 15 6 8 1017.0 1017.0 0.0
30/09:00pm 11.8 12.0 10.4 91 0.7 CALM 0 9 0 5 1016.8 1016.8 0.0
30/08:30pm 12.3 12.3 11.2 93 0.6 NW 2 6 1 3 1016.7 1016.7 0.0
30/08:00pm 11.7 10.4 10.1 90 0.8 NW 7 7 4 4 1016.4 1016.4 0.0
30/07:30pm 12.0 10.7 10.1 88 1.0 WSW 7 9 4 5 1016.1 1016.1 0.0
30/07:00pm 12.7 11.0 9.9 83 1.4 SSW 9 9 5 5 1015.8 1015.8 0.0
30/06:30pm 14.3 13.3 11.1 81 1.7 S 7 7 4 4 1015.5 1015.5 0.0
30/06:00pm 15.3 13.7 11.5 78 2.0 SSE 11 13 6 7 1015.1 1015.1 0.0
30/05:30pm 16.5 14.2 11.6 73 2.7 SSE 15 20 8 11 1014.9 1014.9 0.0
30/05:00pm 17.7 15.0 11.7 68 3.3 SE 17 24 9 13 1014.5 1014.5 0.0
30/04:30pm 18.7 15.2 11.0 61 4.2 SSE 20 30 11 16 1014.2 1014.2 0.0
30/04:00pm 18.8 16.4 11.4 62 4.0 SE 15 22 8 12 1014.1 1014.1 0.0
30/03:30pm 19.6 17.3 11.6 60 4.4 SE 15 22 8 12 1014.0 1014.0 0.0
30/03:00pm 19.4 16.1 10.9 58 4.6 SE 19 26 10 14 1014.0 1014.0 0.0
30/02:30pm 20.2 17.3 10.9 55 5.1 SSE 17 26 9 14 1014.0 1014.0 0.0
30/02:00pm 20.9 17.6 11.0 53 5.4 SE 19 26 10 14 1014.3 1014.3 0.0
30/01:30pm 20.2 17.3 8.2 46 6.2 S 13 19 7 10 1014.5 1014.5 0.0
30/01:00pm 20.3 16.3 8.3 46 6.2 SSE 19 24 10 13 1014.9 1014.9 0.0
30/12:30pm 21.5 19.0 11.2 52 5.7 SSW 15 22 8 12 1015.2 1015.2 0.0
30/12:00pm 20.7 18.0 10.2 51 5.7 S 15 22 8 12 1015.7 1015.7 0.0
30/11:30am 19.6 16.5 8.9 50 5.6 SSW 15 20 8 11 1016.3 1016.3 0.0
30/11:00am 19.3 16.3 9.2 52 5.3 S 15 22 8 12 1016.9 1016.9 0.0
30/10:30am 19.3 16.2 8.9 51 5.4 S 15 24 8 13 1017.4 1017.4 0.0
30/10:00am 18.8 16.5 10.4 58 4.5 SW 13 20 7 11 1017.6 1017.6 0.0
30/09:30am 17.8 14.4 9.2 57 4.5 SW 17 24 9 13 1017.7 1017.7 0.0
30/09:00am 18.2 15.7 9.8 58 4.4 SW 13 22 7 12 1017.6 1017.6 0.0
30/08:30am 16.5 14.1 8.5 59 4.1 W 11 46 6 25 1017.8 1017.8 0.0
30/08:00am 15.9 16.1 11.7 76 2.3 N 2 7 1 4 1017.8 1017.8 0.0
30/07:30am 15.3 14.0 9.9 70 2.8 WSW 7 11 4 6 1017.5 1017.5 0.0
30/07:00am 14.7 13.8 11.5 81 1.7 SSW 7 9 4 5 1017.1 1017.1 0.0
30/06:30am 13.8 14.4 12.0 89 1.0 CALM 0 4 0 2 1017.0 1017.0 0.0
30/06:00am 13.9 14.6 12.3 90 0.9 CALM 0 0 0 0 1016.6 1016.6 0.0
30/05:30am 13.9 14.7 12.6 92 0.7 CALM 0 7 0 4 1016.2 1016.2 0.0
30/05:00am 14.2 15.1 12.8 91 0.8 CALM 0 6 0 3 1016.3 1016.3 0.0
30/04:30am 14.2 13.4 12.9 92 0.7 N 9 13 5 7 1016.0 1016.0 0.0
30/04:00am 14.1 13.0 13.0 93 0.6 N 11 13 6 7 1015.9 1015.9 0.0
30/03:30am 14.0 13.5 12.7 92 0.7 N 7 9 4 5 1016.0 1016.0 0.0
30/03:00am 14.4 13.7 13.1 92 0.7 NNE 9 13 5 7 1016.2 1016.2 0.0
30/02:30am 14.2 15.1 12.8 91 0.8 CALM 0 9 0 5 1016.5 1016.5 0.0
30/02:00am 14.0 12.8 12.7 92 0.7 N 11 13 6 7 1016.8 1016.8 0.0
30/01:30am 14.2 12.6 12.9 92 0.7 N 13 15 7 8 1017.7 1017.7 0.0
30/01:00am 14.2 12.6 12.9 92 0.7 N 13 13 7 7 1017.6 1017.6 0.0
30/12:30am 14.4 13.3 13.0 91 0.8 NNW 11 13 6 7 1017.8 1017.8 0.0
30/12:00am 14.6 15.5 12.8 89 1.0 CALM 0 0 0 0 1018.0 1018.0 0.0
 
Date/Time
EST
Temp
°C
App
Temp
°C
Dew
Point
Rel
Hum
%
Delta-T
°C
Wind Press
QNH
hPa
Press
MSL
hPa
Rain
since 9 am
mm
Dir
 
Spd
km/h
Gust
km/h
Spd
kts
Gust
kts
29/11:30pm 15.0 15.8 12.7 86 1.3 CALM 0 0 0 0 1018.6 1018.6 0.0
29/11:00pm 15.3 14.8 12.8 85 1.4 N 7 9 4 5 1018.5 1018.5 0.0
29/10:30pm 15.2 14.8 12.9 86 1.3 NNW 7 9 4 5 1018.8 1018.8 0.0
29/10:00pm 15.7 14.5 12.8 83 1.6 N 11 13 6 7 1019.0 1019.0 0.0
29/09:30pm 15.5 15.0 12.8 84 1.5 N 7 9 4 5 1019.1 1019.1 0.0
29/09:00pm 15.7 14.5 12.8 83 1.6 NNE 11 13 6 7 1019.0 1019.0 0.0
29/08:30pm 16.2 15.0 12.7 80 1.9 N 11 15 6 8 1019.2 1019.2 0.0
29/08:00pm 16.4 15.6 12.8 79 2.0 N 9 13 5 7 1019.0 1019.0 0.0
29/07:30pm 16.9 15.3 12.8 77 2.3 NNE 13 17 7 9 1019.1 1019.1 0.0
29/07:00pm 17.3 15.7 12.8 75 2.5 NNE 13 19 7 10 1019.0 1019.0 0.0
29/06:30pm 17.4 15.9 13.1 76 2.4 NNE 13 17 7 9 1019.0 1019.0 0.0
29/06:00pm 17.6 15.7 13.1 75 2.5 NNE 15 19 8 10 1018.8 1018.8 0.0
29/05:30pm 17.9 16.0 13.0 73 2.7 NNE 15 22 8 12 1018.4 1018.4 0.0
29/05:00pm 18.2 16.3 13.1 72 2.9 NE 15 22 8 12 1018.4 1018.4 0.0
29/04:30pm 18.4 15.7 12.8 70 3.1 ENE 19 24 10 13 1018.2 1018.2 0.0
29/04:00pm 18.7 15.9 12.5 67 3.5 ENE 19 28 10 15 1018.2 1018.2 0.0
29/03:30pm 19.0 15.8 11.8 63 4.0 NE 20 30 11 16 1018.5 1018.5 0.0
29/03:00pm 19.7 16.4 11.7 60 4.4 NE 20 30 11 16 1018.5 1018.5 0.0
29/02:30pm 20.3 16.5 11.2 56 5.0 ENE 22 30 12 16 1018.7 1018.7 0.0
29/02:00pm 21.0 18.7 11.6 55 5.2 NE 15 28 8 15 1019.2 1019.2 0.0
29/01:30pm 21.8 20.1 12.4 55 5.3 NE 13 20 7 11 1019.5 1019.5 0.0
29/01:00pm 21.2 19.5 11.2 53 5.5 NE 11 17 6 9 1020.2 1020.2 0.0
29/12:30pm 21.3 19.4 10.5 50 5.9 NNE 11 20 6 11 1020.7 1020.7 0.0
29/12:00pm 20.6 19.1 11.8 57 4.9 NNE 11 19 6 10 1021.2 1021.2 0.0
29/11:30am 20.2 19.0 10.3 53 5.3 NNE 7 13 4 7 1021.9 1021.9 0.0
29/11:00am 19.4 18.8 10.4 56 4.8 SSW 4 9 2 5 1022.7 1022.7 0.0
29/10:30am 18.6 17.9 9.9 57 4.6 S 4 11 2 6 1023.1 1023.1 0.0
29/10:00am 17.1 15.6 9.3 60 4.0 S 7 13 4 7 1023.5 1023.5 0.0
29/09:30am 15.4 13.9 9.3 67 3.1 SSE 7 13 4 7 1023.6 1023.6 0.0
29/09:00am 14.5 14.1 9.9 74 2.4 SE 2 7 1 4 1023.8 1023.8 0.0
29/08:30am 12.0 11.7 8.8 81 1.6 CALM 0 0 0 0 1024.0 1024.0 0.0
29/08:00am 10.2 9.8 8.1 87 1.0 CALM 0 0 0 0 1024.1 1024.1 0.0
29/07:30am 9.3 9.0 8.7 96 0.3 CALM 0 4 0 2 1023.9 1023.9 0.0
29/07:00am 7.8 7.2 7.5 98 0.1 CALM 0 4 0 2 1023.6 1023.6 0.0
29/06:30am 6.1 5.1 5.7 97 0.2 CALM 0 6 0 3 1023.1 1023.1 0.0
29/06:00am 4.9 2.2 3.9 93 0.4 N 7 9 4 5 1023.0 1023.0 0.0
29/05:34am 6.6 4.0 6.2 97 0.2 NNE 9 9 5 5 1022.8 1022.8 0.0
29/05:30am 6.7 4.7 6.3 97 0.2 NNE 6 9 3 5 1022.7 1022.7 0.0
29/05:24am 6.2 5.2 5.8 97 0.2 CALM 0 0 0 0 1022.7 1022.7 0.0
29/05:12am 5.3 3.3 4.4 94 0.4 NNW 4 7 2 4 1022.7 1022.7 0.0
29/05:01am 5.3 2.7 4.4 94 0.4 NNW 7 9 4 5 1022.6 1022.6 0.0
29/05:00am 5.3 2.7 4.3 93 0.4 NNW 7 9 4 5 1022.6 1022.6 0.0
29/04:49am 6.6 4.5 6.0 96 0.3 N 6 7 3 4 1022.5 1022.5 0.0
29/04:41am 7.0 4.9 6.6 97 0.2 NNE 7 9 4 5 1022.4 1022.4 0.0
29/04:34am 7.1 5.6 6.7 97 0.2 NNE 4 9 2 5 1022.4 1022.4 0.0
29/04:30am 5.7 4.5 4.8 94 0.4 CALM 0 9 0 5 1022.4 1022.4 0.0
29/04:25am 5.8 4.7 4.9 94 0.4 CALM 0 0 0 0 1022.4 1022.4 0.0
29/04:04am 6.9 6.1 6.5 97 0.2 CALM 0 0 0 0 1022.3 1022.3 0.0
29/04:00am 7.1 6.3 6.7 97 0.2 CALM 0 0 0 0 1022.2 1022.2 0.0
29/03:55am 6.4 5.4 5.7 95 0.3 CALM 0 0 0 0 1022.2 1022.2 0.0
29/03:46am 6.2 5.1 5.3 94 0.4 CALM 0 0 0 0 1022.1 1022.1 0.0
29/03:43am 6.2 5.2 5.5 95 0.3 CALM 0 0 0 0 1022.1 1022.1 0.0
29/03:30am 7.0 6.2 6.4 96 0.3 CALM 0 0 0 0 1022.1 1022.1 0.0
29/03:18am 6.8 5.9 6.1 95 0.3 CALM 0 0 0 0 1022.4 1022.4 0.0
29/03:15am 6.3 5.3 5.4 94 0.4 CALM 0 0 0 0 1022.5 1022.5 0.0
29/03:00am 6.7 5.6 5.3 91 0.6 CALM 0 0 0 0 1022.4 1022.4 0.0
29/02:30am 8.4 6.6 8.0 97 0.2 N 7 11 4 6 1022.4 1022.4 0.0
29/02:00am 6.9 4.7 6.0 94 0.4 NNW 7 9 4 5 1022.5 1022.5 0.0
29/01:30am 8.6 6.8 7.8 95 0.4 N 7 9 4 5 1022.5 1022.5 0.0
29/01:00am 8.2 6.2 7.1 93 0.5 N 7 13 4 7 1022.5 1022.5 0.0
29/12:30am 8.7 5.7 7.8 94 0.4 N 13 15 7 8 1022.8 1022.8 0.0
29/12:00am 8.3 7.6 6.8 90 0.7 CALM 0 0 0 0 1022.9 1022.9 0.0
 
Date/Time
EST
Temp
°C
App
Temp
°C
Dew
Point
Rel
Hum
%
Delta-T
°C
Wind Press
QNH
hPa
Press
MSL
hPa
Rain
since 9 am
mm
Dir
 
Spd
km/h
Gust
km/h
Spd
kts
Gust
kts
28/11:30pm 9.6 9.2 8.4 92 0.6 CALM 0 0 0 0 1022.9 1022.9 0.0
28/11:00pm 10.3 7.5 8.7 90 0.8 N 13 17 7 9 1022.6 1022.6 0.0
28/10:30pm 11.0 7.8 9.9 93 0.6 N 17 20 9 11 1022.6 1022.6 0.0
28/10:00pm 10.5 7.8 8.8 89 0.8 N 13 13 7 7 1022.6 1022.6 0.0
28/09:30pm 10.6 7.5 9.0 90 0.8 N 15 15 8 8 1022.8 1022.8 0.0
28/09:00pm 10.2 7.3 8.3 88 0.9 N 13 15 7 8 1022.7 1022.7 0.0
28/08:30pm 11.1 9.1 8.7 85 1.2 N 9 11 5 6 1022.3 1022.3 0.0
28/08:00pm 10.9 10.5 8.1 83 1.4 CALM 0 0 0 0 1021.8 1021.8 0.0
28/07:30pm 12.6 12.4 9.1 79 1.8 CALM 0 0 0 0 1021.4 1021.4 0.0
28/07:00pm 13.6 13.2 8.4 71 2.6 CALM 0 0 0 0 1021.0 1021.0 0.0
28/06:30pm 15.6 13.5 8.4 62 3.6 NE 9 15 5 8 1020.6 1020.6 0.0
28/06:00pm 16.8 14.1 8.8 59 4.1 ENE 13 17 7 9 1020.0 1020.0 0.0
28/05:30pm 16.6 16.0 7.3 54 4.6 CALM 0 0 0 0 1019.5 1019.5 0.0
28/05:00pm 21.3 19.3 6.4 38 7.5 SSW 6 9 3 5 1019.1 1019.1 0.0
28/04:30pm 22.5 19.4 3.6 29 9.1 WSW 9 13 5 7 1019.0 1019.0 0.0
28/04:00pm 22.9 19.3 2.9 27 9.5 WSW 11 19 6 10 1018.7 1018.7 0.0
28/03:30pm 23.2 20.2 4.2 29 9.3 WSW 9 17 5 9 1018.6 1018.6 0.0
28/03:00pm 23.0 18.7 3.0 27 9.6 WSW 15 22 8 12 1018.4 1018.4 0.0
28/02:30pm 23.0 18.4 5.4 32 8.8 WNW 19 28 10 15 1018.6 1018.6 0.0
28/02:00pm 22.2 17.8 4.7 32 8.6 WSW 17 24 9 13 1018.8 1018.8 0.0
28/01:30pm 22.2 18.3 7.2 38 7.7 W 17 26 9 14 1019.2 1019.2 0.0
28/01:00pm 21.9 17.4 7.0 38 7.6 SW 20 30 11 16 1019.8 1019.8 0.0
28/12:30pm 21.1 16.6 5.9 37 7.6 SW 19 30 10 16 1020.1 1020.1 0.0
28/12:00pm 20.9 17.9 7.5 42 6.9 W 13 20 7 11 1020.7 1020.7 0.0
28/11:30am 20.5 16.9 8.2 45 6.4 SW 17 26 9 14 1021.2 1021.2 0.0
28/11:00am 20.5 16.1 7.5 43 6.6 WSW 20 32 11 17 1021.6 1021.6 0.0
28/10:30am 19.8 15.9 8.5 48 5.9 SW 19 26 10 14 1022.1 1022.1 0.0
28/10:00am 19.5 16.2 9.7 53 5.2 WSW 17 24 9 13 1022.1 1022.1 0.0
28/09:30am 18.8 16.4 12.8 68 3.4 SW 17 20 9 11 1022.3 1022.3 0.0
28/09:00am 18.1 15.7 10.2 60 4.2 W 13 20 7 11 1022.4 1022.4 4.0
28/08:30am 17.6 17.3 14.5 82 1.8 WNW 9 11 5 6 1022.4 1022.4 4.0
28/08:00am 15.4 16.2 12.7 84 1.5 CALM 0 0 0 0 1022.0 1022.0 4.0
28/07:30am 14.5 14.0 13.7 95 0.4 N 9 13 5 7 1022.0 1022.0 4.0
28/07:21am 14.1 13.5 13.5 96 0.3 N 9 11 5 6 1021.9 1021.9 4.0
28/07:07am 13.8 13.5 13.3 97 0.3 NE 7 11 4 6 1021.6 1021.6 4.0
28/07:00am 12.7 12.9 11.8 94 0.5 ENE 2 11 1 6 1021.5 1021.5 4.0
28/06:58am 12.7 13.3 11.8 94 0.5 CALM 0 2 0 1 1021.5 1021.5 4.0
28/06:54am 12.7 13.2 11.6 93 0.6 CALM 0 0 0 0 1021.5 1021.5 4.0
28/06:43am 13.0 13.5 11.7 92 0.7 CALM 0 0 0 0 1021.2 1021.2 4.0
28/06:38am 13.2 13.8 11.9 92 0.7 CALM 0 0 0 0 1021.2 1021.2 4.0
28/06:30am 13.5 14.3 12.4 93 0.6 CALM 0 7 0 4 1021.1 1021.1 4.0
28/06:00am 14.2 15.2 13.2 94 0.6 CALM 0 0 0 0 1020.8 1020.8 4.0
28/05:30am 14.4 14.1 13.4 94 0.6 N 7 9 4 5 1020.7 1020.7 4.0
28/05:00am 14.5 14.5 13.7 95 0.4 N 6 9 3 5 1020.5 1020.5 4.0
28/04:30am 14.3 15.5 13.7 96 0.3 CALM 0 0 0 0 1020.4 1020.4 4.0
28/04:00am 14.2 15.3 13.4 95 0.4 CALM 0 0 0 0 1020.3 1020.3 4.0
28/03:30am 14.3 15.4 13.5 95 0.4 CALM 0 0 0 0 1020.0 1020.0 4.0
28/03:00am 14.4 15.5 13.6 95 0.4 CALM 0 0 0 0 1019.7 1019.7 4.0
28/02:30am 14.5 15.7 13.7 95 0.4 CALM 0 0 0 0 1019.9 1019.9 4.0
28/02:00am 14.5 15.7 13.7 95 0.4 CALM 0 0 0 0 1019.9 1019.9 4.0
28/01:30am 14.4 14.5 13.8 96 0.3 NNE 6 15 3 8 1019.9 1019.9 4.0
28/01:00am 14.4 14.8 13.8 96 0.3 NNE 4 9 2 5 1020.1 1020.1 4.0
28/12:30am 14.4 14.4 13.6 95 0.4 NNE 6 9 3 5 1020.7 1020.7 3.8
28/12:00am 14.5 14.5 13.7 95 0.4 NNE 6 9 3 5 1020.7 1020.7 3.6
 
Date/Time
EST
Temp
°C
App
Temp
°C
Dew
Point
Rel
Hum
%
Delta-T
°C
Wind Press
QNH
hPa
Press
MSL
hPa
Rain
since 9 am
mm
Dir
 
Spd
km/h
Gust
km/h
Spd
kts
Gust
kts
27/11:30pm 14.4 15.5 13.6 95 0.4 CALM 0 0 0 0 1020.5 1020.5 3.6
27/11:00pm 14.3 15.4 13.5 95 0.4 CALM 0 0 0 0 1020.6 1020.6 3.4
27/10:30pm 14.3 15.4 13.5 95 0.4 CALM 0 0 0 0 1020.6 1020.6 3.4
27/10:00pm 14.2 15.3 13.4 95 0.4 CALM 0 0 0 0 1020.5 1020.5 3.2

Other Formats:

Comma delimited format used in spreadsheet applications
http://www.bom.gov.au/fwo/IDN60801/IDN60801.94572.axf

JavaScript Object Notation format (JSON) in row-major order
http://www.bom.gov.au/fwo/IDN60801/IDN60801.94572.json